Time;durP1;ratioP1;P1;durP2;ratioP2;P2;SDS_P1;SDS_P2;PMS_P1;PMS_P2;Temp;Humidity;BMP_temperature;BMP_pressure;BME280_temperature;BME280_humidity;BME280_pressure;Samples;Min_cycle;Max_cycle;Signal;HPM_P1;HPM_P2
2022/05/04 00:02:04;;;;;;;2.90;2.70;;;;;;;;;;4979408;28;20290;-59
2022/05/04 00:04:31;;;;;;;2.78;2.63;;;;;;;;;;4977196;28;20215;-59
2022/05/04 00:06:59;;;;;;;2.60;2.50;;;;;;;;;;4978103;28;20238;-59
2022/05/04 00:09:26;;;;;;;3.10;2.90;;;;;;;;;;4989690;28;20202;-59
2022/05/04 00:11:55;;;;;;;2.92;2.80;;;;;;;;;;4978213;28;20212;-59
2022/05/04 00:14:25;;;;;;;3.00;2.80;;;;;;;;;;4987317;28;20218;-59
2022/05/04 00:16:52;;;;;;;2.60;2.50;;;;;;;;;;4997651;28;20687;-59
2022/05/04 00:19:20;;;;;;;2.78;2.60;;;;;;;;;;4997704;28;20214;-59
2022/05/04 00:21:47;;;;;;;3.00;2.80;;;;;;;;;;4997268;28;20210;-59
2022/05/04 00:24:19;;;;;;;2.90;2.75;;;;;;;;;;4997447;28;20469;-59
2022/05/04 00:26:47;;;;;;;2.80;2.60;;;;;;;;;;4985717;28;20203;-59
2022/05/04 00:29:15;;;;;;;2.78;2.60;;;;;;;;;;4977965;28;20204;-58
2022/05/04 00:31:43;;;;;;;2.88;2.67;;;;;;;;;;4977363;28;20335;-58
2022/05/04 00:34:10;;;;;;;2.72;2.60;;;;;;;;;;4961941;29;20208;-59
2022/05/04 00:36:37;;;;;;;2.70;2.58;;;;;;;;;;4962483;29;20212;-59
2022/05/04 00:39:05;;;;;;;2.70;2.60;;;;;;;;;;4976809;28;20208;-59
2022/05/04 00:41:33;;;;;;;2.80;2.70;;;;;;;;;;4965781;28;20204;-59
2022/05/04 00:44:00;;;;;;;2.58;2.47;;;;;;;;;;4962055;28;20451;-59
2022/05/04 00:46:29;;;;;;;2.40;2.30;;;;;;;;;;4962283;28;20204;-58
2022/05/04 00:48:56;;;;;;;2.90;2.70;;;;;;;;;;4954323;28;20215;-59
2022/05/04 00:51:24;;;;;;;2.90;2.70;;;;;;;;;;4962216;29;20523;-59
2022/05/04 00:53:52;;;;;;;2.60;2.47;;;;;;;;;;4962008;28;20254;-59
2022/05/04 00:56:19;;;;;;;2.50;2.40;;;;;;;;;;4962261;28;20208;-59
2022/05/04 00:58:54;;;;;;;2.50;2.40;;;;;;;;;;4965322;28;20265;-59
2022/05/04 01:01:22;;;;;;;2.40;2.30;;;;;;;;;;4980909;28;20277;-58
2022/05/04 01:03:51;;;;;;;2.60;2.50;;;;;;;;;;4968789;28;20208;-58
2022/05/04 01:06:19;;;;;;;2.95;2.75;;;;;;;;;;4961974;29;20219;-59
2022/05/04 01:08:46;;;;;;;2.67;2.47;;;;;;;;;;4963018;28;20583;-59
2022/05/04 01:11:13;;;;;;;2.60;2.50;;;;;;;;;;4962905;28;20228;-58
2022/05/04 01:13:41;;;;;;;2.55;2.45;;;;;;;;;;4971920;28;20204;-59
2022/05/04 01:16:08;;;;;;;2.80;2.60;;;;;;;;;;4980829;28;20291;-58
2022/05/04 01:18:36;;;;;;;2.50;2.40;;;;;;;;;;4980326;28;20601;-59
2022/05/04 01:21:05;;;;;;;2.80;2.60;;;;;;;;;;4969257;28;20216;-59
2022/05/04 01:23:34;;;;;;;2.80;2.70;;;;;;;;;;4961297;28;20267;-59
2022/05/04 01:26:01;;;;;;;2.70;2.50;;;;;;;;;;4961293;29;20212;-58
2022/05/04 01:28:29;;;;;;;2.90;2.70;;;;;;;;;;4965509;28;20225;-58
2022/05/04 01:30:56;;;;;;;2.40;2.30;;;;;;;;;;4980745;28;20234;-59
2022/05/04 01:33:24;;;;;;;2.55;2.42;;;;;;;;;;4979739;28;20236;-58
2022/05/04 01:35:56;;;;;;;2.42;2.33;;;;;;;;;;4980076;28;20604;-59
2022/05/04 01:38:23;;;;;;;2.47;2.38;;;;;;;;;;4970171;28;20204;-59
2022/05/04 01:40:52;;;;;;;2.45;2.35;;;;;;;;;;4969641;28;20200;-58
2022/05/04 01:43:19;;;;;;;2.33;2.22;;;;;;;;;;4979488;28;20211;-58
2022/05/04 01:45:47;;;;;;;2.60;2.50;;;;;;;;;;4980328;28;20208;-58
2022/05/04 01:48:15;;;;;;;2.45;2.35;;;;;;;;;;4977581;28;20211;-58
2022/05/04 01:50:42;;;;;;;2.75;2.58;;;;;;;;;;4966814;28;20231;-58
2022/05/04 01:53:09;;;;;;;2.47;2.38;;;;;;;;;;4979848;28;20212;-58
2022/05/04 01:55:37;;;;;;;2.50;2.40;;;;;;;;;;4980073;28;20218;-59
2022/05/04 01:58:07;;;;;;;2.53;2.42;;;;;;;;;;4965826;28;20726;-58
2022/05/04 02:00:35;;;;;;;2.50;2.30;;;;;;;;;;4960922;28;20660;-59
2022/05/04 02:03:02;;;;;;;2.67;2.58;;;;;;;;;;4960854;28;20208;-58
2022/05/04 02:05:29;;;;;;;2.30;2.20;;;;;;;;;;4964196;28;20198;-59
2022/05/04 02:07:57;;;;;;;2.30;2.20;;;;;;;;;;4977125;28;20627;-59
2022/05/04 02:10:24;;;;;;;2.78;2.20;;;;;;;;;;4970219;28;20238;-59
2022/05/04 02:12:52;;;;;;;2.15;2.05;;;;;;;;;;4979980;28;20207;-58
2022/05/04 02:15:21;;;;;;;2.50;2.40;;;;;;;;;;4963549;28;20204;-59
2022/05/04 02:17:48;;;;;;;2.55;2.45;;;;;;;;;;4960377;29;20676;-59
2022/05/04 02:20:15;;;;;;;2.13;2.03;;;;;;;;;;4960528;29;20208;-59
2022/05/04 02:22:43;;;;;;;2.22;2.13;;;;;;;;;;4959980;29;20208;-58
2022/05/04 02:25:11;;;;;;;2.30;2.20;;;;;;;;;;4960301;29;20201;-58
2022/05/04 02:27:38;;;;;;;2.45;2.35;;;;;;;;;;4977723;28;20204;-58
2022/05/04 02:30:06;;;;;;;2.17;2.08;;;;;;;;;;4979694;28;20589;-59
2022/05/04 02:32:35;;;;;;;2.47;2.38;;;;;;;;;;4979401;28;20266;-59
2022/05/04 02:37:57;;;;;;;2.40;2.20;;;;;;;;;;4975357;28;20246;-60
2022/05/04 02:40:25;;;;;;;2.55;2.38;;;;;;;;;;4969601;28;20237;-58
2022/05/04 02:42:52;;;;;;;2.65;2.55;;;;;;;;;;4960356;29;20271;-58
2022/05/04 02:45:19;;;;;;;2.25;2.15;;;;;;;;;;4959963;28;20212;-58
2022/05/04 02:47:48;;;;;;;2.20;2.10;;;;;;;;;;4960315;29;20208;-58
2022/05/04 02:50:16;;;;;;;2.30;2.20;;;;;;;;;;4961665;28;20208;-59
2022/05/04 02:52:43;;;;;;;2.30;2.20;;;;;;;;;;4979360;28;20207;-59
2022/05/04 02:55:11;;;;;;;2.13;2.03;;;;;;;;;;4978298;28;20214;-59
2022/05/04 02:57:39;;;;;;;2.70;2.50;;;;;;;;;;4979469;28;20208;-58
2022/05/04 03:00:07;;;;;;;2.30;2.20;;;;;;;;;;4978836;28;20549;-59
2022/05/04 03:02:34;;;;;;;2.28;2.17;;;;;;;;;;4979220;28;20207;-59
2022/05/04 03:05:04;;;;;;;2.13;2.03;;;;;;;;;;4977288;28;20617;-58
2022/05/04 03:07:32;;;;;;;2.53;2.42;;;;;;;;;;4971306;28;20215;-59
2022/05/04 03:09:59;;;;;;;2.13;2.03;;;;;;;;;;4977053;28;20203;-59
2022/05/04 03:12:27;;;;;;;2.08;1.98;;;;;;;;;;4978873;28;20238;-59
2022/05/04 03:14:54;;;;;;;2.13;2.03;;;;;;;;;;4978706;28;20211;-59
2022/05/04 03:17:21;;;;;;;2.15;2.05;;;;;;;;;;4979049;28;20222;-59
2022/05/04 03:19:49;;;;;;;2.20;2.10;;;;;;;;;;4978260;28;20210;-59
2022/05/04 03:22:18;;;;;;;2.20;2.10;;;;;;;;;;4978391;28;20208;-59
2022/05/04 03:24:45;;;;;;;2.22;2.13;;;;;;;;;;4978444;28;20506;-59
2022/05/04 03:27:13;;;;;;;2.00;1.90;;;;;;;;;;4979354;28;20500;-59
2022/05/04 03:29:40;;;;;;;2.17;2.08;;;;;;;;;;4964856;28;20204;-58
2022/05/04 03:32:08;;;;;;;2.20;2.10;;;;;;;;;;4965420;28;20645;-58
2022/05/04 03:34:36;;;;;;;2.42;2.22;;;;;;;;;;4991508;28;20203;-58
2022/05/04 03:37:04;;;;;;;2.28;2.13;;;;;;;;;;4991710;28;20204;-58
2022/05/04 03:39:33;;;;;;;2.20;2.10;;;;;;;;;;4991624;28;20203;-58
2022/05/04 03:42:00;;;;;;;2.20;2.10;;;;;;;;;;4997572;28;20207;-58
2022/05/04 03:44:27;;;;;;;2.20;2.10;;;;;;;;;;4985557;28;20199;-58
2022/05/04 03:46:55;;;;;;;1.92;1.83;;;;;;;;;;4970321;28;20211;-58
2022/05/04 03:49:24;;;;;;;2.20;2.10;;;;;;;;;;4977692;28;20203;-58
2022/05/04 03:51:52;;;;;;;2.20;2.10;;;;;;;;;;4979198;28;20227;-58
2022/05/04 03:54:19;;;;;;;2.17;2.08;;;;;;;;;;4991563;28;20200;-58
2022/05/04 03:56:48;;;;;;;2.40;2.30;;;;;;;;;;4978418;28;20254;-59
2022/05/04 03:59:16;;;;;;;2.10;2.00;;;;;;;;;;4987634;28;20206;-58
2022/05/04 04:01:43;;;;;;;2.00;1.90;;;;;;;;;;4997552;28;20210;-59
2022/05/04 04:04:12;;;;;;;2.20;2.00;;;;;;;;;;4988040;28;20227;-59
2022/05/04 04:06:40;;;;;;;2.20;2.10;;;;;;;;;;4980983;28;20204;-58
2022/05/04 04:09:07;;;;;;;2.13;2.03;;;;;;;;;;4991760;28;20504;-58
2022/05/04 04:11:35;;;;;;;2.22;2.13;;;;;;;;;;4982047;28;20223;-59
2022/05/04 04:14:04;;;;;;;2.17;2.08;;;;;;;;;;4985862;28;20207;-58
2022/05/04 04:16:31;;;;;;;2.03;1.92;;;;;;;;;;5000562;28;20305;-58
2022/05/04 04:18:59;;;;;;;1.98;1.88;;;;;;;;;;5000414;28;20207;-58
2022/05/04 04:24:11;;;;;;;2.10;2.00;;;;;;;;;;5000652;28;20195;-58
2022/05/04 04:26:38;;;;;;;1.90;1.80;;;;;;;;;;4991090;28;20597;-58
2022/05/04 04:29:08;;;;;;;2.20;2.10;;;;;;;;;;4980745;28;20215;-58
2022/05/04 04:31:35;;;;;;;2.58;2.10;;;;;;;;;;4978142;28;20322;-58
2022/05/04 04:34:03;;;;;;;2.15;2.05;;;;;;;;;;4961337;29;20208;-59
2022/05/04 04:36:31;;;;;;;2.15;2.05;;;;;;;;;;4960564;28;20216;-58
2022/05/04 04:38:58;;;;;;;1.92;1.83;;;;;;;;;;4964267;28;20223;-58
2022/05/04 04:41:25;;;;;;;2.10;2.00;;;;;;;;;;4965296;28;20202;-58
2022/05/04 04:43:53;;;;;;;2.22;2.13;;;;;;;;;;4965316;28;20666;-58
2022/05/04 04:46:22;;;;;;;2.00;1.90;;;;;;;;;;4979955;28;20207;-58
2022/05/04 04:48:50;;;;;;;2.20;2.10;;;;;;;;;;4979163;28;20199;-58
2022/05/04 04:51:17;;;;;;;2.00;1.90;;;;;;;;;;4979230;28;20277;-58
2022/05/04 04:53:45;;;;;;;2.20;2.10;;;;;;;;;;4978579;28;20207;-58
2022/05/04 04:56:12;;;;;;;1.90;1.80;;;;;;;;;;4977632;28;20215;-58
2022/05/04 04:58:40;;;;;;;1.90;1.80;;;;;;;;;;4975180;28;20215;-58
2022/05/04 05:01:07;;;;;;;2.15;2.05;;;;;;;;;;4978558;28;20203;-58
2022/05/04 05:03:36;;;;;;;2.17;2.08;;;;;;;;;;4977464;28;20196;-58
2022/05/04 05:06:03;;;;;;;1.80;1.70;;;;;;;;;;4977703;28;20207;-58
2022/05/04 05:08:30;;;;;;;2.10;2.00;;;;;;;;;;4968782;28;20196;-58
2022/05/04 05:10:58;;;;;;;2.10;2.00;;;;;;;;;;4970384;28;20203;-59
2022/05/04 05:13:26;;;;;;;2.22;2.13;;;;;;;;;;4961424;28;20207;-58
2022/05/04 05:16:07;;;;;;;2.10;2.00;;;;;;;;;;4969781;28;20215;-58
2022/05/04 05:18:36;;;;;;;2.05;1.95;;;;;;;;;;4977375;28;20286;-58
2022/05/04 05:21:03;;;;;;;2.28;2.17;;;;;;;;;;4973040;28;20208;-58
2022/05/04 05:23:31;;;;;;;3.35;2.10;;;;;;;;;;4961598;28;20220;-58
2022/05/04 05:25:58;;;;;;;4.28;2.13;;;;;;;;;;4973976;28;20235;-58
2022/05/04 05:28:26;;;;;;;2.92;2.40;;;;;;;;;;4974645;28;20598;-58
2022/05/04 05:30:53;;;;;;;2.60;2.10;;;;;;;;;;4974297;28;20214;-58
2022/05/04 05:33:21;;;;;;;2.72;2.10;;;;;;;;;;4971770;28;20338;-58
2022/05/04 05:35:49;;;;;;;2.72;2.17;;;;;;;;;;4974631;28;20523;-58
2022/05/04 05:38:17;;;;;;;3.17;2.42;;;;;;;;;;4971469;28;20202;-59
2022/05/04 05:40:45;;;;;;;3.13;1.90;;;;;;;;;;4956130;29;20211;-59
2022/05/04 05:43:12;;;;;;;1.90;1.80;;;;;;;;;;4961279;28;20200;-58
2022/05/04 05:45:40;;;;;;;2.42;2.22;;;;;;;;;;4975351;28;20477;-58
2022/05/04 05:48:08;;;;;;;2.47;2.28;;;;;;;;;;4962795;28;20516;-58
2022/05/04 05:50:37;;;;;;;2.17;2.08;;;;;;;;;;4975813;28;20766;-58
2022/05/04 05:53:06;;;;;;;2.70;2.30;;;;;;;;;;4974561;28;20228;-58
2022/05/04 05:55:33;;;;;;;2.30;2.20;;;;;;;;;;4966445;28;20211;-58
2022/05/04 05:58:01;;;;;;;2.03;1.92;;;;;;;;;;4957325;28;20212;-58
2022/05/04 06:00:28;;;;;;;2.20;2.10;;;;;;;;;;4957434;28;20246;-58
2022/05/04 06:02:56;;;;;;;2.50;2.30;;;;;;;;;;4966954;28;20307;-58
2022/05/04 06:05:24;;;;;;;2.40;2.20;;;;;;;;;;4957626;28;20218;-58
2022/05/04 06:07:51;;;;;;;4.28;2.20;;;;;;;;;;4960896;28;20628;-58
2022/05/04 06:10:20;;;;;;;2.28;2.17;;;;;;;;;;4965245;28;20215;-58
2022/05/04 06:12:47;;;;;;;2.30;2.10;;;;;;;;;;4957553;29;20243;-58
2022/05/04 06:15:15;;;;;;;2.22;2.13;;;;;;;;;;4976163;28;20335;-58
2022/05/04 06:17:45;;;;;;;2.55;2.35;;;;;;;;;;4977444;28;20340;-58
2022/05/04 06:20:13;;;;;;;2.85;2.60;;;;;;;;;;4977705;28;20207;-58
2022/05/04 06:22:41;;;;;;;2.53;2.33;;;;;;;;;;4976321;28;20458;-58
2022/05/04 06:25:08;;;;;;;2.53;2.20;;;;;;;;;;4961568;28;20201;-59
2022/05/04 06:27:37;;;;;;;2.63;2.42;;;;;;;;;;4967485;28;20204;-58
2022/05/04 06:35:35;;;;;;;2.80;2.50;;;;;;;;;;4973454;28;20305;-58
2022/05/04 06:38:05;;;;;;;2.20;2.10;;;;;;;;;;4970406;28;20517;-58
2022/05/04 06:40:32;;;;;;;2.45;2.25;;;;;;;;;;4964084;28;20304;-58
2022/05/04 06:43:01;;;;;;;2.45;2.22;;;;;;;;;;4957197;28;20196;-58
2022/05/04 06:45:28;;;;;;;2.83;2.63;;;;;;;;;;4963927;28;20200;-58
2022/05/04 06:47:57;;;;;;;2.60;2.40;;;;;;;;;;4960287;28;20203;-59
2022/05/04 06:50:25;;;;;;;2.20;2.10;;;;;;;;;;4975772;28;20207;-58
2022/05/04 06:52:52;;;;;;;3.83;2.70;;;;;;;;;;4975701;28;20676;-58
2022/05/04 06:55:19;;;;;;;2.60;2.40;;;;;;;;;;4975533;28;20223;-58
2022/05/04 06:57:47;;;;;;;3.03;2.40;;;;;;;;;;4975832;28;20303;-58
2022/05/04 07:00:16;;;;;;;2.60;2.40;;;;;;;;;;4975669;28;20207;-59
2022/05/04 07:02:44;;;;;;;2.88;2.67;;;;;;;;;;4975924;28;20203;-58
2022/05/04 07:05:11;;;;;;;2.55;2.25;;;;;;;;;;4976438;28;20508;-59
2022/05/04 07:07:38;;;;;;;2.90;2.70;;;;;;;;;;4975463;28;20203;-58
2022/05/04 07:10:06;;;;;;;2.75;2.55;;;;;;;;;;4967448;28;20358;-58
2022/05/04 07:12:33;;;;;;;2.38;2.25;;;;;;;;;;4976110;28;20242;-58
2022/05/04 07:15:01;;;;;;;2.97;2.60;;;;;;;;;;4962466;28;20196;-58
2022/05/04 07:17:30;;;;;;;2.70;2.50;;;;;;;;;;4968178;28;20199;-58
2022/05/04 07:19:57;;;;;;;2.67;2.47;;;;;;;;;;4967488;28;20585;-58
2022/05/04 07:22:24;;;;;;;2.70;2.50;;;;;;;;;;4975688;28;20204;-58
2022/05/04 07:24:52;;;;;;;2.55;2.35;;;;;;;;;;4965882;28;20235;-58
2022/05/04 07:27:19;;;;;;;2.85;2.65;;;;;;;;;;4964737;28;20661;-58
2022/05/04 07:29:47;;;;;;;2.47;2.28;;;;;;;;;;4962654;28;20211;-58
2022/05/04 07:32:15;;;;;;;3.15;2.85;;;;;;;;;;4963996;28;20232;-58
2022/05/04 07:34:44;;;;;;;2.50;2.30;;;;;;;;;;4966545;28;20207;-59
2022/05/04 07:37:11;;;;;;;2.70;2.50;;;;;;;;;;4964395;28;20209;-58
2022/05/04 07:42:25;;;;;;;2.92;2.65;;;;;;;;;;4960974;28;20614;-59
2022/05/04 07:44:52;;;;;;;2.70;2.50;;;;;;;;;;4959642;28;20271;-59
2022/05/04 07:47:20;;;;;;;3.25;2.95;;;;;;;;;;4960341;28;20224;-58
2022/05/04 07:49:50;;;;;;;2.83;2.63;;;;;;;;;;4960158;28;20268;-58
2022/05/04 07:52:17;;;;;;;3.00;2.70;;;;;;;;;;4958273;28;20228;-58
2022/05/04 07:54:45;;;;;;;3.13;2.50;;;;;;;;;;4968055;28;20213;-58
2022/05/04 07:57:12;;;;;;;2.97;2.70;;;;;;;;;;4978662;28;20210;-58
2022/05/04 07:59:40;;;;;;;4.10;3.28;;;;;;;;;;4976974;28;20714;-58
2022/05/04 08:04:54;;;;;;;2.97;2.72;;;;;;;;;;4961955;28;20308;-58
2022/05/04 08:07:21;;;;;;;3.58;2.78;;;;;;;;;;4957981;29;20292;-58
2022/05/04 08:09:48;;;;;;;3.28;3.05;;;;;;;;;;4969642;28;20212;-59
2022/05/04 08:12:16;;;;;;;4.00;2.95;;;;;;;;;;4957532;29;20622;-58
2022/05/04 08:14:43;;;;;;;3.22;2.90;;;;;;;;;;4966660;28;20207;-58
2022/05/04 08:17:10;;;;;;;3.08;2.80;;;;;;;;;;4977546;28;20329;-58
2022/05/04 08:19:38;;;;;;;4.05;2.90;;;;;;;;;;4975710;28;20306;-59
2022/05/04 08:22:12;;;;;;;3.47;2.83;;;;;;;;;;4977126;28;20507;-58
2022/05/04 08:24:39;;;;;;;4.35;2.95;;;;;;;;;;4975769;28;20206;-58
2022/05/04 08:27:07;;;;;;;4.18;2.67;;;;;;;;;;4965032;28;20204;-58
2022/05/04 08:29:35;;;;;;;4.00;3.15;;;;;;;;;;4956728;29;20277;-58
2022/05/04 08:32:02;;;;;;;4.07;3.33;;;;;;;;;;4956273;28;20696;-58
2022/05/04 08:34:30;;;;;;;3.47;3.00;;;;;;;;;;4957378;29;20638;-58
2022/05/04 08:36:58;;;;;;;4.90;3.15;;;;;;;;;;4957208;29;20307;-58
2022/05/04 08:39:27;;;;;;;4.43;3.30;;;;;;;;;;4959590;28;20232;-58
2022/05/04 08:41:55;;;;;;;3.88;2.83;;;;;;;;;;4975940;28;20215;-58
2022/05/04 08:44:22;;;;;;;3.72;3.30;;;;;;;;;;4975461;28;20262;-58
2022/05/04 08:46:50;;;;;;;3.53;2.90;;;;;;;;;;4974695;28;20507;-58
2022/05/04 08:49:19;;;;;;;3.40;3.10;;;;;;;;;;4965551;28;20314;-59
2022/05/04 08:51:48;;;;;;;4.18;3.20;;;;;;;;;;4956182;28;20360;-58
2022/05/04 08:54:17;;;;;;;5.05;3.35;;;;;;;;;;4956558;28;20220;-58
2022/05/04 08:56:46;;;;;;;3.40;3.10;;;;;;;;;;4957887;28;20239;-58
2022/05/04 08:59:13;;;;;;;3.47;3.03;;;;;;;;;;4956872;28;20216;-59
2022/05/04 09:01:41;;;;;;;4.15;3.22;;;;;;;;;;4957193;28;20231;-58
2022/05/04 09:04:09;;;;;;;3.28;2.97;;;;;;;;;;4956810;28;20201;-58
2022/05/04 09:06:43;;;;;;;2.97;2.78;;;;;;;;;;4957506;29;20208;-58
2022/05/04 09:09:11;;;;;;;3.28;2.80;;;;;;;;;;4959172;28;20231;-58
2022/05/04 09:11:39;;;;;;;3.63;3.33;;;;;;;;;;4958502;29;20212;-58
2022/05/04 09:14:09;;;;;;;3.63;3.33;;;;;;;;;;4959052;28;20224;-58
2022/05/04 09:16:37;;;;;;;3.67;3.25;;;;;;;;;;4958392;29;20201;-58
2022/05/04 09:19:06;;;;;;;3.42;3.13;;;;;;;;;;4958127;28;20273;-58
2022/05/04 09:21:34;;;;;;;3.53;3.20;;;;;;;;;;4974301;28;20496;-58
2022/05/04 09:24:02;;;;;;;3.80;3.45;;;;;;;;;;4965236;28;20211;-58
2022/05/04 09:26:30;;;;;;;3.83;3.42;;;;;;;;;;4957965;29;20207;-58
2022/05/04 09:29:01;;;;;;;5.78;3.00;;;;;;;;;;4969230;28;20211;-58
2022/05/04 09:31:32;;;;;;;6.97;3.22;;;;;;;;;;4977478;28;20211;-58
2022/05/04 09:34:00;;;;;;;5.75;3.50;;;;;;;;;;4977482;28;20231;-58
2022/05/04 09:36:32;;;;;;;5.30;3.42;;;;;;;;;;4977529;28;20243;-58
2022/05/04 09:47:21;;;;;;;6.85;3.55;;;;;;;;;;4958282;28;20203;-58
2022/05/04 09:49:49;;;;;;;3.40;3.10;;;;;;;;;;4956902;28;20200;-58
2022/05/04 09:52:17;;;;;;;4.38;3.13;;;;;;;;;;4973037;28;20204;-58
2022/05/04 09:54:47;;;;;;;4.60;3.30;;;;;;;;;;4957437;28;20224;-58
2022/05/04 09:57:15;;;;;;;5.50;3.28;;;;;;;;;;4957667;28;20670;-58
2022/05/04 09:59:43;;;;;;;4.88;3.28;;;;;;;;;;4957411;28;20491;-58
2022/05/04 10:02:13;;;;;;;6.20;2.92;;;;;;;;;;4965049;28;20196;-58
2022/05/04 10:04:43;;;;;;;3.85;3.20;;;;;;;;;;4956807;28;20243;-58
2022/05/04 10:07:11;;;;;;;4.55;3.28;;;;;;;;;;4956756;29;20208;-58
2022/05/04 10:09:39;;;;;;;3.67;3.20;;;;;;;;;;4960926;28;20228;-58
2022/05/04 10:12:07;;;;;;;4.47;3.50;;;;;;;;;;4973685;28;20204;-58
2022/05/04 10:14:34;;;;;;;4.55;3.03;;;;;;;;;;4965781;28;20216;-58
2022/05/04 10:17:06;;;;;;;3.35;3.03;;;;;;;;;;4954358;29;20462;-58
2022/05/04 10:19:38;;;;;;;3.90;3.28;;;;;;;;;;4966477;28;20204;-58
2022/05/04 10:22:09;;;;;;;3.63;3.20;;;;;;;;;;4974161;28;20223;-59
2022/05/04 10:24:37;;;;;;;3.58;3.28;;;;;;;;;;4959431;28;20287;-58
2022/05/04 10:27:18;;;;;;;3.58;3.28;;;;;;;;;;4954243;29;20216;-58
2022/05/04 10:32:34;;;;;;;8.77;3.28;;;;;;;;;;4971749;28;20484;-58
2022/05/04 10:35:10;;;;;;;3.30;3.00;;;;;;;;;;4972595;28;20207;-59
2022/05/04 10:40:32;;;;;;;3.50;3.20;;;;;;;;;;5129677;27;20964;-59
2022/05/04 10:43:01;;;;;;;3.60;3.03;;;;;;;;;;5130253;27;20187;-60
2022/05/04 10:45:30;;;;;;;3.60;3.15;;;;;;;;;;5130336;27;20194;-59
2022/05/04 10:48:04;;;;;;;3.45;3.05;;;;;;;;;;5130156;27;20202;-59
2022/05/04 10:50:46;;;;;;;3.40;3.20;;;;;;;;;;5131989;27;20522;-59
2022/05/04 10:53:19;;;;;;;3.30;3.00;;;;;;;;;;5129767;27;20190;-59
2022/05/04 10:55:56;;;;;;;3.53;3.22;;;;;;;;;;5129811;27;20198;-60
2022/05/04 10:58:36;;;;;;;3.42;2.92;;;;;;;;;;5128508;27;20198;-59
2022/05/04 11:01:14;;;;;;;3.42;3.13;;;;;;;;;;5130222;27;20232;-60
2022/05/04 11:04:06;;;;;;;3.38;3.08;;;;;;;;;;5130228;27;20224;-60
2022/05/04 11:06:34;;;;;;;3.50;2.97;;;;;;;;;;5114229;27;20195;-59
2022/05/04 11:09:07;;;;;;;3.40;3.10;;;;;;;;;;5129187;28;20554;-60
2022/05/04 11:11:39;;;;;;;3.45;3.15;;;;;;;;;;5131625;27;20194;-60
2022/05/04 11:14:08;;;;;;;3.38;3.10;;;;;;;;;;5131685;27;20198;-59
2022/05/04 11:16:36;;;;;;;3.67;3.00;;;;;;;;;;5130947;27;20210;-60
2022/05/04 11:19:05;;;;;;;3.53;3.22;;;;;;;;;;5131693;27;20222;-60
2022/05/04 11:21:33;;;;;;;3.22;3.03;;;;;;;;;;5131631;27;20218;-60
2022/05/04 11:24:01;;;;;;;3.30;2.95;;;;;;;;;;5131615;27;20191;-60
2022/05/04 11:26:35;;;;;;;3.65;3.35;;;;;;;;;;5130430;28;20355;-59
2022/05/04 11:29:07;;;;;;;3.40;3.10;;;;;;;;;;5130281;27;20202;-60
2022/05/04 11:31:35;;;;;;;3.28;3.08;;;;;;;;;;5130425;27;20213;-60
2022/05/04 11:34:03;;;;;;;3.20;3.00;;;;;;;;;;5130764;27;20198;-60
2022/05/04 11:36:30;;;;;;;3.60;3.35;;;;;;;;;;5128263;27;20471;-59
2022/05/04 11:38:57;;;;;;;3.60;3.30;;;;;;;;;;5128094;27;20516;-59
2022/05/04 11:41:25;;;;;;;3.60;3.30;;;;;;;;;;5129295;27;20594;-59
2022/05/04 11:43:54;;;;;;;3.20;3.00;;;;;;;;;;5129198;27;20194;-60
2022/05/04 11:46:22;;;;;;;3.47;3.17;;;;;;;;;;5128677;27;20458;-59
2022/05/04 11:48:50;;;;;;;3.55;3.25;;;;;;;;;;5128217;27;20191;-60
2022/05/04 11:51:18;;;;;;;3.58;3.28;;;;;;;;;;5119123;27;20294;-59
2022/05/04 11:53:46;;;;;;;3.60;3.30;;;;;;;;;;5115738;28;20213;-59
2022/05/04 11:56:14;;;;;;;3.50;3.20;;;;;;;;;;5114184;28;20427;-59
2022/05/04 11:58:42;;;;;;;3.63;3.30;;;;;;;;;;5113425;28;20206;-59
2022/05/04 12:01:13;;;;;;;3.58;3.28;;;;;;;;;;5113819;28;20199;-60
2022/05/04 12:03:45;;;;;;;3.58;3.28;;;;;;;;;;5116160;27;20532;-59
2022/05/04 12:06:15;;;;;;;3.75;3.45;;;;;;;;;;5117405;28;20199;-59
2022/05/04 12:08:43;;;;;;;3.78;3.47;;;;;;;;;;5114065;28;20423;-59
2022/05/04 12:11:11;;;;;;;3.78;3.47;;;;;;;;;;5114089;28;20613;-60
2022/05/04 12:13:39;;;;;;;3.97;3.38;;;;;;;;;;5114504;28;20199;-59
2022/05/04 12:16:07;;;;;;;3.88;3.58;;;;;;;;;;5114223;28;20574;-60
2022/05/04 12:18:35;;;;;;;3.72;3.42;;;;;;;;;;5113842;28;20219;-60
2022/05/04 12:21:08;;;;;;;3.88;3.58;;;;;;;;;;5115489;28;20210;-60
2022/05/04 12:23:36;;;;;;;3.80;3.50;;;;;;;;;;5113775;28;20199;-60
2022/05/04 12:26:04;;;;;;;3.97;3.67;;;;;;;;;;5113209;28;20194;-60
2022/05/04 12:28:32;;;;;;;4.00;3.70;;;;;;;;;;5115260;28;20500;-59
2022/05/04 12:33:45;;;;;;;3.88;3.42;;;;;;;;;;5114337;28;20198;-58
2022/05/04 12:36:14;;;;;;;3.45;3.25;;;;;;;;;;5113371;28;20202;-60
2022/05/04 12:38:46;;;;;;;3.40;3.20;;;;;;;;;;5112294;28;20219;-59
2022/05/04 12:41:15;;;;;;;3.40;3.20;;;;;;;;;;5095038;28;20586;-59
2022/05/04 12:43:42;;;;;;;4.00;3.70;;;;;;;;;;5105116;28;20195;-58
2022/05/04 12:46:10;;;;;;;3.42;3.22;;;;;;;;;;5113487;28;20191;-59
2022/05/04 12:48:38;;;;;;;3.58;3.30;;;;;;;;;;5114866;28;20319;-60
2022/05/04 12:51:07;;;;;;;3.85;3.55;;;;;;;;;;5114062;28;20217;-60
2022/05/04 12:53:37;;;;;;;4.00;3.70;;;;;;;;;;5113981;28;20294;-59
2022/05/04 12:58:50;;;;;;;3.60;3.40;;;;;;;;;;5114173;28;20190;-59
2022/05/04 13:01:18;;;;;;;3.83;3.53;;;;;;;;;;5113144;28;20209;-59
2022/05/04 13:03:46;;;;;;;3.47;3.28;;;;;;;;;;5113072;28;20254;-60
2022/05/04 13:06:13;;;;;;;3.50;3.28;;;;;;;;;;5115115;28;20576;-60
2022/05/04 13:08:42;;;;;;;4.00;3.70;;;;;;;;;;5113081;28;20495;-60
2022/05/04 13:11:10;;;;;;;3.72;3.53;;;;;;;;;;5112765;28;20205;-62
2022/05/04 13:13:37;;;;;;;3.55;3.25;;;;;;;;;;5113912;28;20236;-60
2022/05/04 13:16:05;;;;;;;3.53;3.33;;;;;;;;;;5113810;28;20205;-59
2022/05/04 13:18:32;;;;;;;3.95;3.70;;;;;;;;;;5114654;28;20206;-59
2022/05/04 13:21:00;;;;;;;4.00;3.70;;;;;;;;;;5113528;28;20215;-59
2022/05/04 13:23:27;;;;;;;3.90;3.60;;;;;;;;;;5113072;28;20199;-60
2022/05/04 13:25:56;;;;;;;3.90;3.70;;;;;;;;;;5113493;28;20191;-59
2022/05/04 13:28:24;;;;;;;3.72;3.42;;;;;;;;;;5113685;28;20202;-59
2022/05/04 13:30:51;;;;;;;3.85;3.55;;;;;;;;;;5112656;28;20263;-59
2022/05/04 13:33:19;;;;;;;3.67;3.38;;;;;;;;;;5112645;28;20353;-59
2022/05/04 13:35:47;;;;;;;3.97;3.67;;;;;;;;;;5114845;28;20207;-59
2022/05/04 13:38:14;;;;;;;3.65;3.45;;;;;;;;;;5114977;28;20218;-60
2022/05/04 13:40:41;;;;;;;3.92;3.72;;;;;;;;;;5112920;28;20223;-59
2022/05/04 13:43:10;;;;;;;3.75;3.45;;;;;;;;;;5113125;28;20195;-59
2022/05/04 13:45:39;;;;;;;3.65;3.45;;;;;;;;;;5113138;28;20195;-59
2022/05/04 13:48:06;;;;;;;3.53;3.33;;;;;;;;;;5113586;28;20226;-59
2022/05/04 13:53:18;;;;;;;4.03;3.72;;;;;;;;;;5114175;28;20198;-59
2022/05/04 13:55:47;;;;;;;3.70;3.50;;;;;;;;;;5114504;28;20297;-59
2022/05/04 13:58:17;;;;;;;3.72;3.42;;;;;;;;;;5113519;28;20191;-59
2022/05/04 14:00:45;;;;;;;3.70;3.50;;;;;;;;;;5114054;28;20225;-59
2022/05/04 14:03:12;;;;;;;3.80;3.60;;;;;;;;;;5114395;28;20218;-59
2022/05/04 14:05:40;;;;;;;3.72;3.50;;;;;;;;;;5115455;28;20223;-59
2022/05/04 14:08:07;;;;;;;3.75;3.53;;;;;;;;;;5114313;28;20278;-59
2022/05/04 14:10:35;;;;;;;3.53;3.33;;;;;;;;;;5113995;28;20206;-59
2022/05/04 14:13:03;;;;;;;3.90;3.60;;;;;;;;;;5112735;28;20267;-59
2022/05/04 14:15:32;;;;;;;3.97;3.60;;;;;;;;;;5112754;28;20214;-59
2022/05/04 14:17:59;;;;;;;3.83;3.53;;;;;;;;;;5112109;28;20199;-59
2022/05/04 14:20:28;;;;;;;3.85;3.55;;;;;;;;;;5112108;28;20605;-59
2022/05/04 14:22:56;;;;;;;3.75;3.45;;;;;;;;;;5112268;28;20541;-59
2022/05/04 14:25:23;;;;;;;3.70;3.50;;;;;;;;;;5111029;28;20583;-59
2022/05/04 14:27:53;;;;;;;3.33;3.13;;;;;;;;;;5112050;28;20194;-59
2022/05/04 14:30:20;;;;;;;3.65;3.45;;;;;;;;;;5112907;28;20198;-59
2022/05/04 14:32:49;;;;;;;4.10;3.80;;;;;;;;;;5111567;28;20199;-59
2022/05/04 14:35:16;;;;;;;3.53;3.33;;;;;;;;;;5111781;28;20507;-60
2022/05/04 14:37:44;;;;;;;3.53;3.33;;;;;;;;;;5113364;28;20205;-60
2022/05/04 14:40:12;;;;;;;3.72;3.42;;;;;;;;;;5112506;28;20309;-59
2022/05/04 14:42:39;;;;;;;3.35;3.15;;;;;;;;;;5111135;28;20191;-60
2022/05/04 14:45:08;;;;;;;3.63;3.38;;;;;;;;;;5112275;28;20447;-60
2022/05/04 14:47:37;;;;;;;3.40;3.20;;;;;;;;;;5111652;28;20199;-60
2022/05/04 14:50:07;;;;;;;3.90;3.60;;;;;;;;;;5113780;28;20210;-59
2022/05/04 14:52:36;;;;;;;3.75;3.47;;;;;;;;;;5113231;28;20199;-59
2022/05/04 14:55:04;;;;;;;4.68;3.50;;;;;;;;;;5111997;28;20209;-59
2022/05/04 14:57:31;;;;;;;3.70;3.40;;;;;;;;;;5111290;28;20199;-59
2022/05/04 14:59:59;;;;;;;3.42;3.13;;;;;;;;;;5112108;28;20629;-59
2022/05/04 15:02:26;;;;;;;4.00;3.67;;;;;;;;;;5112200;28;20247;-59
2022/05/04 15:05:02;;;;;;;3.80;3.50;;;;;;;;;;5111693;28;20203;-59
2022/05/04 15:07:32;;;;;;;4.70;3.70;;;;;;;;;;5113652;28;20481;-60
2022/05/04 15:09:59;;;;;;;4.47;3.53;;;;;;;;;;5113078;28;20203;-59
2022/05/04 15:12:27;;;;;;;3.90;3.60;;;;;;;;;;5112843;28;20191;-59
2022/05/04 15:14:54;;;;;;;3.95;3.65;;;;;;;;;;5111423;28;20195;-59
2022/05/04 15:17:21;;;;;;;3.60;3.40;;;;;;;;;;5112686;28;20275;-59
2022/05/04 15:19:49;;;;;;;3.70;3.40;;;;;;;;;;5112304;28;20505;-59
2022/05/04 15:22:16;;;;;;;3.67;3.42;;;;;;;;;;5111671;28;20256;-59
2022/05/04 15:24:45;;;;;;;3.90;3.60;;;;;;;;;;5111285;28;20195;-59
2022/05/04 15:27:13;;;;;;;3.78;3.47;;;;;;;;;;5115050;28;20202;-60
2022/05/04 15:29:41;;;;;;;3.70;3.40;;;;;;;;;;5115744;28;20203;-60